Time;durP1;ratioP1;P1;durP2;ratioP2;P2;SDS_P1;SDS_P2;PMS_P1;PMS_P2;Temp;Humidity;BMP_temperature;BMP_pressure;BME280_temperature;BME280_humidity;BME280_pressure;Samples;Min_cycle;Max_cycle;Signal;HPM_P1;HPM_P2
2023/01/22 00:02:07;;;;;;;48.85;21.40;;;;;;;1.64;95.25;101395.15;1735884;82;21228;-81
2023/01/22 00:05:14;;;;;;;46.00;23.27;;;;;;;1.65;95.35;101386.13;1735589;82;21281;-88
2023/01/22 00:08:20;;;;;;;47.85;22.50;;;;;;;1.68;95.36;101384.08;1735073;82;22286;-85
2023/01/22 00:11:26;;;;;;;55.20;25.88;;;;;;;1.71;95.41;101397.39;1736273;82;21649;-88
2023/01/22 00:14:33;;;;;;;48.80;23.22;;;;;;;1.76;95.31;101394.42;1736337;82;21193;-81
2023/01/22 00:17:39;;;;;;;44.70;20.95;;;;;;;1.56;95.23;101389.37;1735584;82;21228;-81
2023/01/22 00:20:44;;;;;;;39.63;18.98;;;;;;;1.71;95.46;101387.95;1735013;82;21256;-81
2023/01/22 00:23:50;;;;;;;45.40;22.35;;;;;;;1.62;95.98;101392.55;1734897;81;21157;-87
2023/01/22 00:26:56;;;;;;;43.10;20.37;;;;;;;1.69;95.70;101397.08;1736113;82;21181;-86
2023/01/22 00:29:55;;;;;;;48.25;20.62;;;;;;;1.63;95.92;101399.67;1735324;81;21193;-86
2023/01/22 00:33:01;;;;;;;39.80;19.07;;;;;;;1.69;95.34;101401.99;1739687;82;21741;-86
2023/01/22 00:36:14;;;;;;;48.90;22.80;;;;;;;1.69;94.98;101399.30;1740072;82;21189;-87
2023/01/22 00:39:18;;;;;;;46.15;21.65;;;;;;;1.61;95.14;101393.52;1744331;82;21208;-84
2023/01/22 00:42:25;;;;;;;52.10;21.48;;;;;;;1.61;95.36;101396.22;1743394;82;21196;-85
2023/01/22 00:45:32;;;;;;;45.83;21.57;;;;;;;1.78;94.67;101397.88;1741476;82;21189;-85
2023/01/22 00:48:32;;;;;;;43.87;19.70;;;;;;;1.75;94.97;101405.69;1739783;82;21227;-86
2023/01/22 00:51:38;;;;;;;49.13;23.00;;;;;;;1.80;94.86;101405.41;1740017;82;21300;-80
2023/01/22 00:54:32;;;;;;;47.43;20.50;;;;;;;1.75;95.03;101409.73;1741134;82;21196;-82
2023/01/22 00:57:37;;;;;;;45.50;20.80;;;;;;;1.78;94.46;101407.31;1741301;82;21212;-86
2023/01/22 01:00:42;;;;;;;49.90;21.20;;;;;;;1.81;94.77;101410.32;1741141;82;21181;-86
2023/01/22 01:03:48;;;;;;;44.40;20.25;;;;;;;1.63;95.05;101409.12;1741127;82;21830;-87
2023/01/22 01:06:54;;;;;;;53.02;22.32;;;;;;;1.76;95.46;101414.65;1740042;82;21208;-81
2023/01/22 01:09:59;;;;;;;37.85;19.10;;;;;;;1.66;95.38;101418.38;1733307;82;21224;-85
2023/01/22 01:13:05;;;;;;;45.30;19.65;;;;;;;1.54;95.67;101415.06;1741172;82;21762;-81
2023/01/22 01:16:17;;;;;;;39.73;18.40;;;;;;;1.52;96.08;101419.20;1741260;82;21722;-82
2023/01/22 01:19:19;;;;;;;40.98;18.05;;;;;;;1.41;96.50;101417.64;1741137;82;21687;-81
2023/01/22 01:22:25;;;;;;;36.35;17.90;;;;;;;1.51;96.59;101420.17;1740372;82;21209;-79
2023/01/22 01:25:30;;;;;;;43.95;18.23;;;;;;;1.60;96.05;101418.76;1741063;82;21169;-81
2023/01/22 01:28:35;;;;;;;39.58;17.45;;;;;;;1.75;95.76;101425.05;1739716;82;21201;-85
2023/01/22 01:31:41;;;;;;;41.20;18.67;;;;;;;1.71;96.04;101424.37;1742278;82;21175;-86
2023/01/22 01:34:48;;;;;;;38.85;16.95;;;;;;;1.69;95.87;101423.58;1752399;82;21168;-79
2023/01/22 01:37:54;;;;;;;42.90;17.67;;;;;;;1.69;96.42;101415.96;1735745;82;21761;-79
2023/01/22 01:41:00;;;;;;;43.42;18.57;;;;;;;1.91;96.18;101407.44;1704477;82;21775;-86
2023/01/22 01:44:26;;;;;;;44.67;19.40;;;;;;;1.97;95.93;101403.88;1735328;82;21164;-85
2023/01/22 01:47:41;;;;;;;45.92;17.85;;;;;;;1.81;96.60;101408.49;1705149;84;21238;-81
2023/01/22 01:50:48;;;;;;;41.42;17.60;;;;;;;1.97;96.72;101415.16;1736131;82;21280;-82
2023/01/22 01:53:54;;;;;;;37.95;17.25;;;;;;;1.97;96.75;101416.50;1705776;84;21604;-81
2023/01/22 01:57:05;;;;;;;42.73;20.02;;;;;;;2.23;96.22;101418.47;1736416;82;21190;-81
2023/01/22 02:00:13;;;;;;;50.67;19.75;;;;;;;2.28;95.98;101419.53;1705608;84;21187;-84
2023/01/22 02:03:20;;;;;;;44.48;19.60;;;;;;;2.26;96.10;101421.47;1735434;82;21239;-86
2023/01/22 02:06:26;;;;;;;54.30;20.43;;;;;;;2.36;96.08;101419.92;1705591;84;21759;-86
2023/01/22 02:09:31;;;;;;;41.28;17.70;;;;;;;2.42;95.30;101411.91;1736749;82;21231;-87
2023/01/22 02:12:37;;;;;;;45.20;19.60;;;;;;;2.33;95.19;101420.59;1705147;84;22083;-81
2023/01/22 02:15:45;;;;;;;43.65;19.55;;;;;;;2.24;96.01;101418.84;1736863;82;21140;-81
2023/01/22 02:18:50;;;;;;;48.08;19.73;;;;;;;2.04;96.16;101417.88;1705771;84;21163;-80
2023/01/22 02:21:55;;;;;;;44.75;19.40;;;;;;;2.13;96.50;101410.56;1735464;82;21240;-86
2023/01/22 02:25:01;;;;;;;55.35;21.02;;;;;;;2.16;96.10;101416.23;1705697;84;21223;-83
2023/01/22 02:28:07;;;;;;;46.35;19.12;;;;;;;2.23;95.79;101406.80;1735598;82;21196;-86
2023/01/22 02:31:13;;;;;;;45.83;19.65;;;;;;;2.28;95.72;101412.30;1705366;84;21234;-87
2023/01/22 02:34:13;;;;;;;47.03;19.32;;;;;;;2.28;96.09;101408.25;1737518;80;21762;-86
2023/01/22 02:37:20;;;;;;;53.90;20.40;;;;;;;2.37;95.48;101407.28;1738475;82;21327;-81
2023/01/22 02:40:28;;;;;;;50.35;19.42;;;;;;;2.36;95.91;101409.61;1738662;82;21165;-87
2023/01/22 02:43:34;;;;;;;53.38;24.05;;;;;;;2.41;95.77;101407.48;1737334;82;21189;-87
2023/01/22 02:46:42;;;;;;;50.92;20.23;;;;;;;2.36;95.66;101403.72;1738630;82;21240;-86
2023/01/22 02:49:50;;;;;;;44.48;19.40;;;;;;;2.32;95.64;101402.66;1738737;82;21734;-85
2023/01/22 02:52:56;;;;;;;46.08;19.87;;;;;;;2.30;96.05;101411.70;1737783;82;21190;-86
2023/01/22 02:56:02;;;;;;;46.00;20.75;;;;;;;2.41;95.83;101407.48;1737365;82;21169;-86
2023/01/22 02:59:09;;;;;;;43.78;18.35;;;;;;;2.32;95.76;101405.36;1738841;82;21730;-85
2023/01/22 03:02:16;;;;;;;47.13;20.90;;;;;;;2.16;96.01;101400.03;1738024;82;21224;-80
2023/01/22 03:05:24;;;;;;;58.00;22.50;;;;;;;2.26;96.08;101403.44;1738661;82;21138;-80
2023/01/22 03:08:29;;;;;;;49.33;21.23;;;;;;;2.25;96.04;101396.28;1738207;82;21687;-86
2023/01/22 03:11:36;;;;;;;55.92;23.67;;;;;;;2.21;95.88;101398.81;1738289;82;21197;-81
2023/01/22 03:21:42;;;;;;;57.17;22.93;;;;;;;2.21;96.56;101400.16;1737284;82;21161;-86
2023/01/22 03:24:43;;;;;;;56.48;25.50;;;;;;;2.26;96.31;101404.78;1738612;82;21217;-85
2023/01/22 03:28:17;;;;;;;60.67;26.12;;;;;;;2.35;95.87;101402.45;1738857;82;21762;-80
2023/01/22 03:30:57;;;;;;;61.25;26.48;;;;;;;2.32;95.75;101413.46;1738813;82;21173;-81
2023/01/22 03:34:02;;;;;;;64.30;26.93;;;;;;;2.39;95.74;101417.49;1739078;82;21727;-86
2023/01/22 03:37:11;;;;;;;60.90;26.68;;;;;;;2.29;95.67;101417.20;1741122;82;21173;-81
2023/01/22 03:40:18;;;;;;;58.50;25.82;;;;;;;2.39;95.45;101420.20;1739757;82;21797;-80
2023/01/22 03:43:24;;;;;;;61.63;27.62;;;;;;;2.58;94.54;101414.01;1739751;82;21231;-79
2023/01/22 03:46:30;;;;;;;66.75;25.90;;;;;;;2.59;94.12;101417.12;1736156;82;21159;-82
2023/01/22 03:49:37;;;;;;;51.30;25.08;;;;;;;2.52;94.11;101415.27;1740910;82;21177;-79
2023/01/22 03:52:44;;;;;;;62.98;25.40;;;;;;;2.52;94.19;101418.45;1740246;82;21794;-85
2023/01/22 03:55:50;;;;;;;64.58;28.00;;;;;;;2.60;93.77;101420.69;1741046;82;21166;-87
2023/01/22 03:58:57;;;;;;;57.10;25.02;;;;;;;2.55;93.77;101436.70;1741213;82;21678;-81
2023/01/22 04:02:03;;;;;;;52.35;25.12;;;;;;;2.58;93.10;101424.81;1740865;82;21197;-81
2023/01/22 04:05:11;;;;;;;58.68;24.63;;;;;;;2.47;93.44;101428.69;1739533;82;21746;-80
2023/01/22 04:08:19;;;;;;;57.35;24.37;;;;;;;2.54;93.20;101435.42;1739729;82;21703;-81
2023/01/22 04:11:24;;;;;;;59.58;22.90;;;;;;;2.51;93.56;101435.64;1739547;82;21540;-80
2023/01/22 04:14:32;;;;;;;54.73;23.20;;;;;;;2.52;93.55;101437.36;1740995;82;21173;-85
2023/01/22 04:17:38;;;;;;;52.03;22.35;;;;;;;2.47;93.21;101428.69;1739922;81;21750;-79
2023/01/22 04:20:56;;;;;;;54.55;23.40;;;;;;;2.51;93.17;101431.09;1739561;81;21177;-86
2023/01/22 04:24:03;;;;;;;50.50;21.57;;;;;;;2.57;92.61;101433.89;1740694;82;21232;-81
2023/01/22 04:27:08;;;;;;;51.10;21.87;;;;;;;2.56;92.46;101442.96;1741309;82;21196;-81
2023/01/22 04:30:16;;;;;;;44.55;20.70;;;;;;;2.49;92.56;101450.60;1741039;82;21201;-81
2023/01/22 04:33:24;;;;;;;57.95;21.93;;;;;;;2.49;92.35;101453.30;1739018;82;21281;-79
2023/01/22 04:36:31;;;;;;;44.85;21.45;;;;;;;2.54;92.01;101449.82;1739393;82;21753;-86
2023/01/22 04:39:37;;;;;;;55.17;21.77;;;;;;;2.72;91.22;101458.56;1740332;82;21766;-81
2023/01/22 04:42:43;;;;;;;55.00;20.32;;;;;;;2.61;91.70;101457.53;1740267;82;21848;-81
2023/01/22 04:45:50;;;;;;;48.50;19.55;;;;;;;2.72;91.47;101446.89;1740988;82;21162;-79
2023/01/22 04:48:57;;;;;;;50.28;21.57;;;;;;;2.71;91.41;101452.78;1741001;82;21785;-86
2023/01/22 04:52:03;;;;;;;44.90;19.62;;;;;;;2.78;91.12;101463.59;1740877;82;21209;-86
2023/01/22 04:55:08;;;;;;;48.50;20.00;;;;;;;2.92;90.38;101465.91;1740155;82;21885;-81
2023/01/22 04:58:13;;;;;;;50.90;18.90;;;;;;;3.00;90.22;101470.30;1740067;82;21233;-80
2023/01/22 05:01:21;;;;;;;54.27;20.92;;;;;;;2.87;90.32;101470.70;1739644;82;21201;-81
2023/01/22 05:04:29;;;;;;;47.73;18.37;;;;;;;2.92;90.15;101481.63;1739740;82;21669;-81
2023/01/22 05:07:34;;;;;;;50.12;18.73;;;;;;;2.97;89.45;101478.64;1740461;82;21783;-85
2023/01/22 05:10:41;;;;;;;48.48;21.50;;;;;;;2.97;89.22;101470.52;1740131;82;21201;-80
2023/01/22 05:13:49;;;;;;;58.35;21.62;;;;;;;3.18;88.57;101477.70;1739642;82;21213;-87
2023/01/22 05:16:55;;;;;;;50.73;22.80;;;;;;;3.02;88.42;101480.06;1739704;82;21185;-81
2023/01/22 05:20:00;;;;;;;54.13;21.68;;;;;;;3.00;88.29;101479.77;1741173;82;21157;-81
2023/01/22 05:23:06;;;;;;;53.73;21.73;;;;;;;3.00;88.53;101482.47;1740193;82;21181;-81
2023/01/22 05:26:06;;;;;;;55.85;22.40;;;;;;;2.89;88.55;101493.12;1739938;82;21181;-86
2023/01/22 05:29:15;;;;;;;77.10;21.80;;;;;;;2.73;89.03;101484.64;1741126;82;21169;-80
2023/01/22 05:32:29;;;;;;;51.85;20.68;;;;;;;2.86;88.74;101497.35;1724729;82;21189;-81
2023/01/22 05:35:21;;;;;;;41.73;20.55;;;;;;;2.77;89.11;101496.09;1741183;80;21683;-80
2023/01/22 05:38:28;;;;;;;53.30;21.62;;;;;;;2.84;88.92;101503.35;1740019;82;21232;-80
2023/01/22 05:41:34;;;;;;;44.58;21.23;;;;;;;2.79;89.01;101503.16;1739824;82;21228;-87
2023/01/22 05:44:40;;;;;;;48.35;21.20;;;;;;;2.78;89.29;101506.83;1740084;82;21721;-81
2023/01/22 05:47:49;;;;;;;50.33;20.75;;;;;;;2.96;88.85;101520.12;1740370;82;21236;-86
2023/01/22 05:51:05;;;;;;;58.52;21.50;;;;;;;2.94;88.09;101513.95;1740007;82;21173;-86
2023/01/22 05:54:11;;;;;;;51.88;20.92;;;;;;;2.85;88.08;101521.30;1740667;82;21181;-80
2023/01/22 05:57:17;;;;;;;64.95;21.10;;;;;;;2.86;87.85;101521.67;1740784;82;21180;-87
2023/01/22 06:00:23;;;;;;;52.50;21.73;;;;;;;2.87;87.43;101524.75;1739866;82;21165;-86
2023/01/22 06:03:30;;;;;;;56.28;19.95;;;;;;;2.90;87.28;101519.17;1739802;82;21268;-81
2023/01/22 06:06:32;;;;;;;51.63;19.67;;;;;;;2.76;87.69;101520.91;1741524;82;21219;-85
2023/01/22 06:09:38;;;;;;;57.60;19.95;;;;;;;2.93;87.58;101528.45;1742252;82;21149;-79
2023/01/22 06:12:44;;;;;;;70.28;22.07;;;;;;;2.90;87.85;101525.92;1741671;82;21232;-79
2023/01/22 06:15:52;;;;;;;66.12;21.15;;;;;;;2.93;87.86;101528.45;1741670;82;21184;-80
2023/01/22 06:19:09;;;;;;;52.40;20.55;;;;;;;2.96;87.88;101531.80;1739867;82;21208;-85
2023/01/22 06:22:18;;;;;;;46.83;19.48;;;;;;;3.03;87.05;101537.70;1740628;82;21185;-79
2023/01/22 06:25:26;;;;;;;49.90;20.27;;;;;;;2.94;86.80;101541.84;1741264;82;21168;-86
2023/01/22 06:28:26;;;;;;;56.37;21.25;;;;;;;2.84;86.90;101546.59;1741216;82;21220;-86
2023/01/22 06:31:20;;;;;;;53.00;19.50;;;;;;;2.88;86.75;101540.89;1741279;82;21152;-86
2023/01/22 06:34:28;;;;;;;48.40;19.35;;;;;;;2.99;86.23;101552.37;1741040;82;21588;-80
2023/01/22 06:37:33;;;;;;;50.43;19.95;;;;;;;2.96;86.15;101543.95;1739253;82;21181;-80
2023/01/22 06:40:38;;;;;;;37.45;18.95;;;;;;;2.84;86.26;101543.41;1739169;82;21129;-86
2023/01/22 06:43:44;;;;;;;51.13;19.45;;;;;;;2.84;86.28;101554.70;1737466;82;21169;-79
2023/01/22 06:46:50;;;;;;;64.92;19.42;;;;;;;2.77;86.37;101554.20;1737638;82;21204;-86
2023/01/22 06:49:56;;;;;;;44.67;17.52;;;;;;;2.65;86.60;101549.58;1737642;82;21201;-79
2023/01/22 06:53:02;;;;;;;53.05;17.37;;;;;;;2.49;87.08;101553.68;1737631;82;21173;-79
2023/01/22 06:56:09;;;;;;;33.48;16.25;;;;;;;2.46;87.23;101559.30;1737459;82;21287;-80
2023/01/22 06:59:14;;;;;;;36.50;15.15;;;;;;;2.58;87.04;101553.12;1738991;82;21161;-87
2023/01/22 07:02:25;;;;;;;39.65;15.32;;;;;;;2.54;86.60;101570.47;1738350;82;21237;-80
2023/01/22 07:05:29;;;;;;;;;;;;;;;2.52;86.62;101565.17;1740702;82;21189;-82
2023/01/22 07:08:36;;;;;;;48.40;14.85;;;;;;;2.57;86.31;101563.55;1737627;82;20220;-87
2023/01/22 07:11:42;;;;;;;40.40;15.93;;;;;;;2.42;86.91;101573.45;1738485;82;21200;-87
2023/01/22 07:14:47;;;;;;;43.85;16.35;;;;;;;2.29;87.66;101565.22;1737441;82;21241;-87
2023/01/22 07:17:58;;;;;;;45.73;17.57;;;;;;;2.29;87.86;101567.92;1737285;81;21192;-87
2023/01/22 07:21:09;;;;;;;48.28;16.07;;;;;;;2.35;88.00;101571.21;1738893;82;21153;-87
2023/01/22 07:24:13;;;;;;;36.13;14.30;;;;;;;2.69;86.71;101570.91;1738804;82;21166;-80
2023/01/22 07:27:20;;;;;;;36.70;18.48;;;;;;;2.14;89.29;101575.59;1738725;82;21153;-87
2023/01/22 07:30:25;;;;;;;43.60;14.68;;;;;;;2.36;88.54;101583.77;1737529;82;21216;-87
2023/01/22 07:33:31;;;;;;;41.33;11.85;;;;;;;2.39;87.86;101582.22;1737368;82;21197;-80
2023/01/22 07:36:36;;;;;;;27.17;11.22;;;;;;;2.49;87.73;101590.14;1737663;82;21249;-86
2023/01/22 07:39:43;;;;;;;32.40;12.30;;;;;;;2.45;87.48;101595.38;1737477;82;21750;-86
2023/01/22 07:42:49;;;;;;;41.20;12.18;;;;;;;2.47;87.24;101590.25;1738166;82;21642;-86
2023/01/22 07:45:57;;;;;;;29.32;11.95;;;;;;;2.41;87.25;101590.63;1737640;81;21181;-86
2023/01/22 07:49:03;;;;;;;32.25;11.40;;;;;;;2.53;87.49;101593.05;1738364;82;21146;-86
2023/01/22 07:52:09;;;;;;;27.45;12.18;;;;;;;2.61;86.92;101594.81;1738358;82;21243;-79
2023/01/22 07:55:16;;;;;;;30.77;13.15;;;;;;;2.47;87.33;101592.08;1737498;82;21730;-85
2023/01/22 07:58:22;;;;;;;27.22;11.35;;;;;;;1.98;88.44;101616.61;1738030;82;21189;-85
2023/01/22 08:01:27;;;;;;;40.95;11.43;;;;;;;1.98;89.63;101601.77;1738236;82;21177;-85
2023/01/22 08:04:33;;;;;;;28.90;11.22;;;;;;;2.01;89.14;101601.56;1736767;82;21177;-85
2023/01/22 08:07:39;;;;;;;36.38;13.90;;;;;;;2.11;89.70;101613.56;1736809;82;21236;-80
2023/01/22 08:10:45;;;;;;;33.10;12.25;;;;;;;2.28;88.70;101601.77;1738010;82;21181;-80
2023/01/22 08:13:50;;;;;;;36.03;11.45;;;;;;;2.32;88.80;101603.33;1738463;82;21225;-81
2023/01/22 08:16:56;;;;;;;32.03;12.00;;;;;;;2.44;88.41;101607.11;1738595;82;21173;-81
2023/01/22 08:20:02;;;;;;;39.92;12.37;;;;;;;2.14;89.32;101609.34;1738974;82;21150;-85
2023/01/22 08:23:09;;;;;;;43.28;11.48;;;;;;;2.18;89.43;101605.50;1738805;82;21177;-82
2023/01/22 08:26:15;;;;;;;35.83;11.60;;;;;;;2.22;89.06;101611.11;1738879;82;21741;-81
2023/01/22 08:29:22;;;;;;;31.85;12.65;;;;;;;2.13;88.86;101613.00;1738683;82;21726;-79
2023/01/22 08:32:27;;;;;;;34.03;11.97;;;;;;;2.15;88.81;101607.51;1738269;82;21185;-86
2023/01/22 08:35:32;;;;;;;35.40;12.33;;;;;;;2.13;89.15;101611.66;1738552;82;21822;-80
2023/01/22 08:38:39;;;;;;;30.65;11.78;;;;;;;2.25;89.27;101608.21;1737191;81;21204;-81
2023/01/22 08:41:45;;;;;;;38.80;13.05;;;;;;;2.21;88.62;101611.19;1741420;82;21190;-86
2023/01/22 08:44:50;;;;;;;37.15;12.43;;;;;;;2.22;88.46;101597.62;1740005;82;21165;-85
2023/01/22 08:47:58;;;;;;;35.98;12.33;;;;;;;2.24;88.11;101609.66;1739920;82;21749;-86
2023/01/22 08:51:07;;;;;;;38.83;13.48;;;;;;;2.37;87.71;101597.66;1741415;82;21153;-87
2023/01/22 08:54:13;;;;;;;28.32;12.80;;;;;;;2.36;87.40;101596.79;1741430;82;21181;-80
2023/01/22 08:57:20;;;;;;;30.82;13.08;;;;;;;2.38;86.92;101596.69;1740509;82;21185;-80
2023/01/22 09:00:26;;;;;;;26.02;11.35;;;;;;;2.48;87.02;101594.68;1741265;82;21809;-80
2023/01/22 09:03:31;;;;;;;36.38;12.88;;;;;;;2.30;87.15;101598.48;1739980;82;21211;-86
2023/01/22 09:06:36;;;;;;;26.12;13.18;;;;;;;2.28;87.34;101589.14;1741120;82;21208;-88
2023/01/22 09:09:41;;;;;;;37.13;12.15;;;;;;;2.23;87.80;101594.44;1741236;82;21212;-81
2023/01/22 09:12:47;;;;;;;26.93;11.20;;;;;;;2.27;88.02;101591.94;1740454;82;21205;-81
2023/01/22 09:15:53;;;;;;;27.13;12.58;;;;;;;2.36;87.24;101586.47;1741237;82;21272;-80
2023/01/22 09:18:59;;;;;;;36.03;12.30;;;;;;;2.43;86.78;101594.58;1741471;82;21192;-81
2023/01/22 09:22:06;;;;;;;26.62;11.83;;;;;;;2.42;86.49;101589.66;1741051;82;21204;-88
2023/01/22 09:25:13;;;;;;;28.50;12.53;;;;;;;2.48;86.35;101584.36;1740158;82;21224;-87
2023/01/22 09:28:19;;;;;;;30.32;12.93;;;;;;;2.39;86.44;101583.56;1740271;82;21217;-86
2023/01/22 09:31:27;;;;;;;31.80;11.03;;;;;;;2.35;86.79;101586.92;1741399;82;21756;-79
2023/01/22 09:34:33;;;;;;;26.27;10.80;;;;;;;2.30;87.06;101584.50;1741381;82;21161;-80
2023/01/22 09:37:39;;;;;;;24.52;11.75;;;;;;;2.28;86.85;101575.64;1740807;82;21805;-86
2023/01/22 09:41:02;;;;;;;34.05;11.20;;;;;;;2.23;86.66;101576.88;1740143;80;21255;-80
2023/01/22 09:44:42;;;;;;;33.38;11.65;;;;;;;2.25;86.92;101575.81;1738706;82;21511;-86
2023/01/22 09:47:52;;;;;;;30.05;11.55;;;;;;;2.75;86.19;101573.22;1737983;82;21228;-79
2023/01/22 09:50:58;;;;;;;27.82;11.88;;;;;;;2.85;84.15;101580.75;1739081;82;21570;-79
2023/01/22 09:54:07;;;;;;;26.27;10.90;;;;;;;2.69;84.83;101570.91;1738986;82;21166;-79
2023/01/22 09:57:09;;;;;;;30.85;12.10;;;;;;;2.71;84.39;101563.55;1738383;82;21197;-87
2023/01/22 10:00:25;;;;;;;24.57;10.55;;;;;;;2.72;84.47;101561.23;1737567;82;21232;-86
2023/01/22 10:03:41;;;;;;;35.15;11.65;;;;;;;2.80;84.05;101551.31;1739116;82;21225;-86
2023/01/22 10:06:47;;;;;;;36.10;10.88;;;;;;;2.59;84.37;101560.73;1741624;82;21209;-80
2023/01/22 10:10:00;;;;;;;25.80;11.88;;;;;;;2.57;84.53;101555.44;1738976;82;21650;-82
2023/01/22 10:13:28;;;;;;;32.70;12.65;;;;;;;2.48;84.66;101550.60;1737667;82;21201;-80
2023/01/22 10:16:35;;;;;;;29.82;12.07;;;;;;;2.48;84.82;101557.36;1739206;82;21782;-79
2023/01/22 10:19:51;;;;;;;37.20;11.73;;;;;;;2.52;84.58;101550.80;1738675;82;21209;-79
2023/01/22 10:23:01;;;;;;;32.25;11.63;;;;;;;2.33;85.22;101552.41;1739111;82;21196;-80
2023/01/22 10:26:24;;;;;;;34.85;12.95;;;;;;;2.24;85.81;101544.87;1738242;81;21145;-79
2023/01/22 10:29:40;;;;;;;24.70;11.68;;;;;;;2.63;84.67;101547.43;1737271;82;21243;-86
2023/01/22 10:32:45;;;;;;;37.03;10.58;;;;;;;2.45;84.52;101554.86;1735645;82;21508;-86
2023/01/22 10:35:55;;;;;;;33.20;11.68;;;;;;;2.53;84.43;101547.13;1737348;82;21140;-81
2023/01/22 10:39:19;;;;;;;27.82;10.88;;;;;;;2.73;83.44;101546.79;1719871;82;21156;-85
2023/01/22 10:42:25;;;;;;;29.25;11.20;;;;;;;2.87;83.18;101546.38;1735482;82;21152;-87
2023/01/22 10:45:31;;;;;;;26.35;11.15;;;;;;;2.75;83.25;101542.14;1736714;82;21236;-87
2023/01/22 10:48:37;;;;;;;31.57;10.75;;;;;;;2.78;82.71;101541.09;1736560;82;21208;-87
2023/01/22 10:51:47;;;;;;;30.02;11.90;;;;;;;2.83;82.93;101540.32;1736754;82;21718;-82
2023/01/22 10:54:53;;;;;;;30.90;10.60;;;;;;;2.78;83.27;101539.26;1736968;82;21149;-88
2023/01/22 10:58:12;;;;;;;22.15;10.85;;;;;;;2.64;83.35;101543.30;1682962;82;21208;-81
2023/01/22 11:01:44;;;;;;;30.20;10.28;;;;;;;2.43;83.80;101532.47;1736144;82;21185;-87
2023/01/22 11:04:52;;;;;;;24.23;10.48;;;;;;;2.52;84.00;101535.95;1737750;82;21156;-87
2023/01/22 11:08:07;;;;;;;25.68;11.97;;;;;;;2.38;84.22;101534.09;1736708;82;21239;-86
2023/01/22 11:11:16;;;;;;;18.67;9.40;;;;;;;2.42;84.15;101538.83;1737512;82;21140;-85
2023/01/22 11:14:35;;;;;;;22.60;10.63;;;;;;;2.44;83.98;101528.80;1737504;82;21155;-86
2023/01/22 11:17:49;;;;;;;20.30;10.28;;;;;;;2.41;83.84;101529.00;1737204;82;21220;-87
2023/01/22 11:21:03;;;;;;;20.60;10.08;;;;;;;2.44;83.89;101532.84;1735849;82;21702;-80
2023/01/22 11:24:29;;;;;;;27.02;9.80;;;;;;;2.46;84.24;101532.28;1735893;82;21173;-80
2023/01/22 11:28:11;;;;;;;31.02;10.75;;;;;;;2.49;84.51;101530.27;1736774;82;21192;-80
2023/01/22 11:31:42;;;;;;;27.15;9.98;;;;;;;2.21;85.29;101527.05;1736824;82;21212;-79
2023/01/22 11:35:24;;;;;;;24.85;9.90;;;;;;;2.19;85.50;101530.30;1737488;82;21153;-86
2023/01/22 11:38:53;;;;;;;25.05;11.03;;;;;;;2.51;84.37;101524.77;1736048;82;21220;-80
2023/01/22 11:42:08;;;;;;;19.20;10.90;;;;;;;2.42;84.43;101526.20;1736673;82;21176;-87
2023/01/22 11:45:22;;;;;;;30.62;11.18;;;;;;;2.40;84.67;101525.89;1737128;82;21208;-87
2023/01/22 11:48:37;;;;;;;22.98;11.00;;;;;;;2.36;84.76;101514.44;1736353;82;21192;-86
2023/01/22 11:52:03;;;;;;;24.75;10.98;;;;;;;2.35;85.03;101528.87;1737142;82;21197;-82
2023/01/22 11:55:38;;;;;;;21.57;10.70;;;;;;;2.31;85.09;101523.30;1737170;82;21208;-86
2023/01/22 11:59:06;;;;;;;22.15;11.68;;;;;;;2.29;85.05;101524.72;1737066;82;21212;-86
2023/01/22 12:02:48;;;;;;;23.62;11.55;;;;;;;2.28;84.89;101528.87;1736481;82;22075;-85
2023/01/22 12:06:22;;;;;;;20.88;9.88;;;;;;;2.27;85.02;101526.66;1737509;82;21190;-85
2023/01/22 12:09:53;;;;;;;21.12;11.40;;;;;;;2.25;84.98;101519.12;1736754;82;21212;-87
2023/01/22 12:13:09;;;;;;;25.40;11.80;;;;;;;2.24;85.23;101521.44;1726773;82;21228;-80
2023/01/22 12:16:45;;;;;;;22.00;11.05;;;;;;;2.24;85.47;101530.88;1737123;82;22163;-80
2023/01/22 12:20:08;;;;;;;28.65;11.45;;;;;;;2.26;85.48;101530.33;1736679;82;21185;-80
2023/01/22 12:23:57;;;;;;;25.10;11.20;;;;;;;2.25;85.39;101538.02;1735818;82;21745;-86
2023/01/22 12:27:12;;;;;;;19.27;9.60;;;;;;;2.19;85.40;101537.05;1737040;82;21196;-80
2023/01/22 12:30:34;;;;;;;22.45;10.58;;;;;;;2.18;85.90;101536.66;1736361;82;21165;-79
2023/01/22 12:33:43;;;;;;;22.32;10.48;;;;;;;2.20;85.65;101533.38;1736052;82;21212;-86
2023/01/22 12:36:48;;;;;;;29.70;11.22;;;;;;;2.15;86.06;101535.48;1737336;82;21176;-87
2023/01/22 12:40:31;;;;;;;26.85;11.48;;;;;;;2.17;86.21;101548.44;1736467;82;21192;-87
2023/01/22 12:44:08;;;;;;;28.00;11.60;;;;;;;2.05;86.26;101540.57;1722185;82;21240;-86
2023/01/22 12:47:37;;;;;;;27.37;11.50;;;;;;;2.22;86.29;101544.97;1731195;82;21161;-80
2023/01/22 12:50:43;;;;;;;33.73;12.53;;;;;;;2.22;85.97;101542.27;1738483;82;21161;-86
2023/01/22 12:53:49;;;;;;;26.37;11.73;;;;;;;2.16;85.99;101551.20;1723694;82;21718;-86
2023/01/22 12:56:58;;;;;;;24.52;11.63;;;;;;;2.10;85.85;101545.70;1739599;82;21774;-87
2023/01/22 13:00:03;;;;;;;29.18;12.47;;;;;;;2.13;86.08;101544.17;1739283;82;21240;-80
2023/01/22 13:03:28;;;;;;;26.20;12.03;;;;;;;2.13;86.25;101547.36;1739478;82;21152;-79
2023/01/22 13:06:46;;;;;;;24.85;11.68;;;;;;;2.11;86.62;101543.38;1739806;82;21160;-86
2023/01/22 13:09:53;;;;;;;30.23;11.73;;;;;;;2.20;86.25;101546.01;1739565;82;21716;-86
2023/01/22 13:13:20;;;;;;;32.70;11.83;;;;;;;2.18;86.00;101542.55;1738246;82;21192;-80
2023/01/22 13:16:32;;;;;;;33.63;12.78;;;;;;;2.19;86.11;101547.84;1739516;82;21163;-80
2023/01/22 13:19:49;;;;;;;38.65;13.45;;;;;;;2.19;85.81;101551.03;1739438;82;21217;-79
2023/01/22 13:22:54;;;;;;;39.90;14.47;;;;;;;2.19;85.85;101543.80;1724373;82;21199;-86
2023/01/22 13:26:04;;;;;;;35.17;13.30;;;;;;;2.17;85.97;101551.13;1739853;82;21153;-87
2023/01/22 13:29:14;;;;;;;40.50;14.70;;;;;;;2.17;86.11;101547.56;1739608;82;21153;-81
2023/01/22 13:32:28;;;;;;;47.70;15.43;;;;;;;1.88;86.18;101549.27;1739606;82;21629;-81
2023/01/22 13:35:33;;;;;;;37.00;15.00;;;;;;;1.93;86.25;101552.56;1740192;82;21734;-87
2023/01/22 13:38:39;;;;;;;47.33;14.47;;;;;;;1.82;86.40;101559.95;1738449;82;21224;-80
2023/01/22 13:41:45;;;;;;;36.33;13.70;;;;;;;1.92;86.52;101561.63;1739648;82;21176;-87
2023/01/22 13:44:56;;;;;;;36.00;13.70;;;;;;;1.93;86.75;101557.97;1738882;82;21552;-87
2023/01/22 13:48:05;;;;;;;40.95;16.07;;;;;;;2.03;86.06;101556.48;1739224;82;21215;-87
2023/01/22 13:51:13;;;;;;;35.98;15.45;;;;;;;1.76;86.67;101558.48;1739101;82;21172;-81
2023/01/22 13:54:38;;;;;;;40.20;16.67;;;;;;;1.69;87.82;101563.83;1739639;82;21734;-82
2023/01/22 13:57:43;;;;;;;48.05;17.17;;;;;;;1.42;88.54;101562.75;1739069;82;21192;-81
2023/01/22 14:00:47;;;;;;;56.58;15.70;;;;;;;1.88;87.39;101562.77;1723111;82;21196;-87
2023/01/22 14:03:54;;;;;;;37.30;13.93;;;;;;;1.88;87.27;101562.77;1723143;82;21160;-80
2023/01/22 14:06:59;;;;;;;53.15;18.32;;;;;;;2.25;86.06;101566.84;1704500;82;21232;-86
2023/01/22 14:10:23;;;;;;;44.70;17.35;;;;;;;2.19;86.00;101564.53;1738473;82;21156;-86
2023/01/22 14:13:29;;;;;;;38.85;17.05;;;;;;;2.16;86.07;101571.45;1740038;82;21192;-81
2023/01/22 14:16:36;;;;;;;54.65;18.12;;;;;;;1.97;86.50;101570.32;1739807;82;21734;-81
2023/01/22 14:19:42;;;;;;;43.68;18.73;;;;;;;2.03;86.78;101568.63;1739665;82;21188;-80
2023/01/22 14:22:47;;;;;;;50.35;19.95;;;;;;;1.85;87.68;101572.41;1723146;82;21196;-80
2023/01/22 14:25:48;;;;;;;48.28;18.12;;;;;;;1.71;88.44;101582.66;1739973;82;21149;-81
2023/01/22 14:28:55;;;;;;;47.98;19.15;;;;;;;1.73;88.96;101582.94;1739821;82;21200;-81
2023/01/22 14:32:00;;;;;;;46.90;20.10;;;;;;;1.74;89.54;101583.34;1739010;82;21777;-87
2023/01/22 14:35:08;;;;;;;54.38;21.33;;;;;;;1.80;89.36;101601.00;1739669;82;21275;-82
2023/01/22 14:38:13;;;;;;;45.98;19.20;;;;;;;1.73;89.56;101589.68;1738680;82;21192;-80